sensor_id;sensor_type;location;lat;lon;timestamp;P1;durP1;ratioP1;P2;durP2;ratioP2
2157;SDS011;41972;48.774;9.282;2022-12-13T00:00:15;41.20;;;37.17;;
2157;SDS011;41972;48.774;9.282;2022-12-13T00:02:42;36.70;;;33.40;;
2157;SDS011;41972;48.774;9.282;2022-12-13T00:05:09;35.20;;;32.08;;
2157;SDS011;41972;48.774;9.282;2022-12-13T00:07:35;35.40;;;32.20;;
2157;SDS011;41972;48.774;9.282;2022-12-13T00:10:00;32.93;;;29.97;;
2157;SDS011;41972;48.774;9.282;2022-12-13T00:12:27;34.73;;;31.33;;
2157;SDS011;41972;48.774;9.282;2022-12-13T00:14:52;36.55;;;33.35;;
2157;SDS011;41972;48.774;9.282;2022-12-13T00:17:18;40.20;;;36.70;;
2157;SDS011;41972;48.774;9.282;2022-12-13T00:19:45;34.93;;;31.67;;
2157;SDS011;41972;48.774;9.282;2022-12-13T00:22:11;40.53;;;37.10;;
2157;SDS011;41972;48.774;9.282;2022-12-13T00:24:37;37.23;;;34.10;;
2157;SDS011;41972;48.774;9.282;2022-12-13T00:27:03;38.13;;;34.73;;
2157;SDS011;41972;48.774;9.282;2022-12-13T00:29:29;34.50;;;31.20;;
2157;SDS011;41972;48.774;9.282;2022-12-13T00:31:54;41.67;;;38.17;;
2157;SDS011;41972;48.774;9.282;2022-12-13T00:34:20;46.27;;;42.77;;
2157;SDS011;41972;48.774;9.282;2022-12-13T00:36:46;43.97;;;40.70;;
2157;SDS011;41972;48.774;9.282;2022-12-13T00:39:12;51.07;;;47.43;;
2157;SDS011;41972;48.774;9.282;2022-12-13T00:41:40;46.33;;;43.17;;
2157;SDS011;41972;48.774;9.282;2022-12-13T00:44:08;45.90;;;42.55;;
2157;SDS011;41972;48.774;9.282;2022-12-13T00:46:35;44.65;;;41.20;;
2157;SDS011;41972;48.774;9.282;2022-12-13T00:49:01;45.80;;;42.20;;
2157;SDS011;41972;48.774;9.282;2022-12-13T00:51:28;70.80;;;66.72;;
2157;SDS011;41972;48.774;9.282;2022-12-13T00:53:55;36.70;;;33.50;;
2157;SDS011;41972;48.774;9.282;2022-12-13T00:56:22;38.07;;;35.03;;
2157;SDS011;41972;48.774;9.282;2022-12-13T00:58:50;35.13;;;31.88;;
2157;SDS011;41972;48.774;9.282;2022-12-13T01:01:17;33.70;;;30.50;;
2157;SDS011;41972;48.774;9.282;2022-12-13T01:03:45;29.52;;;26.77;;
2157;SDS011;41972;48.774;9.282;2022-12-13T01:06:53;39.33;;;35.63;;
2157;SDS011;41972;48.774;9.282;2022-12-13T01:09:01;33.10;;;29.83;;
2157;SDS011;41972;48.774;9.282;2022-12-13T01:11:28;36.83;;;33.50;;
2157;SDS011;41972;48.774;9.282;2022-12-13T01:13:54;29.70;;;25.80;;
2157;SDS011;41972;48.774;9.282;2022-12-13T01:16:19;34.23;;;28.77;;
2157;SDS011;41972;48.774;9.282;2022-12-13T01:18:45;49.50;;;45.70;;
2157;SDS011;41972;48.774;9.282;2022-12-13T01:21:12;39.50;;;36.13;;
2157;SDS011;41972;48.774;9.282;2022-12-13T01:23:39;42.22;;;38.53;;
2157;SDS011;41972;48.774;9.282;2022-12-13T01:26:06;40.23;;;36.70;;
2157;SDS011;41972;48.774;9.282;2022-12-13T01:28:37;48.90;;;45.50;;
2157;SDS011;41972;48.774;9.282;2022-12-13T01:31:04;42.58;;;39.22;;
2157;SDS011;41972;48.774;9.282;2022-12-13T01:33:32;47.50;;;43.90;;
2157;SDS011;41972;48.774;9.282;2022-12-13T01:36:02;48.65;;;44.83;;
2157;SDS011;41972;48.774;9.282;2022-12-13T01:38:29;43.38;;;39.60;;
2157;SDS011;41972;48.774;9.282;2022-12-13T01:40:55;46.20;;;42.70;;
2157;SDS011;41972;48.774;9.282;2022-12-13T01:44:06;47.35;;;43.65;;
2157;SDS011;41972;48.774;9.282;2022-12-13T01:46:16;44.60;;;40.90;;
2157;SDS011;41972;48.774;9.282;2022-12-13T01:48:47;41.03;;;37.63;;
2157;SDS011;41972;48.774;9.282;2022-12-13T01:51:23;38.50;;;35.00;;
2157;SDS011;41972;48.774;9.282;2022-12-13T01:54:12;45.25;;;41.55;;
2157;SDS011;41972;48.774;9.282;2022-12-13T01:56:48;40.53;;;36.97;;
2157;SDS011;41972;48.774;9.282;2022-12-13T01:59:16;28.90;;;24.23;;
2157;SDS011;41972;48.774;9.282;2022-12-13T02:01:45;29.02;;;26.02;;
2157;SDS011;41972;48.774;9.282;2022-12-13T02:04:13;42.25;;;38.72;;
2157;SDS011;41972;48.774;9.282;2022-12-13T02:06:43;35.47;;;32.58;;
2157;SDS011;41972;48.774;9.282;2022-12-13T02:09:10;44.55;;;40.70;;
2157;SDS011;41972;48.774;9.282;2022-12-13T02:11:38;30.30;;;24.25;;
2157;SDS011;41972;48.774;9.282;2022-12-13T02:14:06;34.85;;;25.67;;
2157;SDS011;41972;48.774;9.282;2022-12-13T02:19:24;52.33;;;48.47;;
2157;SDS011;41972;48.774;9.282;2022-12-13T02:24:53;26.58;;;22.67;;
2157;SDS011;41972;48.774;9.282;2022-12-13T02:27:42;27.42;;;22.45;;
2157;SDS011;41972;48.774;9.282;2022-12-13T02:35:33;24.45;;;19.52;;
2157;SDS011;41972;48.774;9.282;2022-12-13T02:38:17;33.80;;;31.17;;
2157;SDS011;41972;48.774;9.282;2022-12-13T02:44:03;20.00;;;17.92;;
2157;SDS011;41972;48.774;9.282;2022-12-13T02:46:38;22.15;;;19.73;;
2157;SDS011;41972;48.774;9.282;2022-12-13T02:49:07;23.45;;;21.27;;
2157;SDS011;41972;48.774;9.282;2022-12-13T02:51:35;24.23;;;21.92;;
2157;SDS011;41972;48.774;9.282;2022-12-13T02:54:03;25.17;;;22.90;;
2157;SDS011;41972;48.774;9.282;2022-12-13T02:56:29;23.57;;;21.37;;
2157;SDS011;41972;48.774;9.282;2022-12-13T02:58:57;28.42;;;25.92;;
2157;SDS011;41972;48.774;9.282;2022-12-13T03:09:43;22.50;;;20.40;;
2157;SDS011;41972;48.774;9.282;2022-12-13T03:15:11;22.35;;;20.15;;
2157;SDS011;41972;48.774;9.282;2022-12-13T03:17:42;25.17;;;22.88;;
2157;SDS011;41972;48.774;9.282;2022-12-13T03:20:18;23.83;;;21.52;;
2157;SDS011;41972;48.774;9.282;2022-12-13T03:22:48;31.52;;;28.92;;
2157;SDS011;41972;48.774;9.282;2022-12-13T03:25:15;42.50;;;39.42;;
2157;SDS011;41972;48.774;9.282;2022-12-13T03:27:40;30.37;;;28.17;;
2157;SDS011;41972;48.774;9.282;2022-12-13T03:30:06;23.53;;;21.30;;
2157;SDS011;41972;48.774;9.282;2022-12-13T03:32:32;21.92;;;19.65;;
2157;SDS011;41972;48.774;9.282;2022-12-13T03:34:57;22.47;;;20.37;;
2157;SDS011;41972;48.774;9.282;2022-12-13T03:37:23;22.90;;;20.70;;
2157;SDS011;41972;48.774;9.282;2022-12-13T03:39:48;21.10;;;19.20;;
2157;SDS011;41972;48.774;9.282;2022-12-13T03:42:15;25.27;;;23.20;;
2157;SDS011;41972;48.774;9.282;2022-12-13T03:44:41;24.85;;;22.45;;
2157;SDS011;41972;48.774;9.282;2022-12-13T03:47:07;23.40;;;21.17;;
2157;SDS011;41972;48.774;9.282;2022-12-13T03:49:33;23.30;;;21.00;;
2157;SDS011;41972;48.774;9.282;2022-12-13T03:51:58;25.83;;;23.63;;
2157;SDS011;41972;48.774;9.282;2022-12-13T03:54:24;28.90;;;26.60;;
2157;SDS011;41972;48.774;9.282;2022-12-13T03:56:49;26.90;;;24.67;;
2157;SDS011;41972;48.774;9.282;2022-12-13T03:59:15;28.60;;;26.00;;
2157;SDS011;41972;48.774;9.282;2022-12-13T04:01:40;18.83;;;16.83;;
2157;SDS011;41972;48.774;9.282;2022-12-13T04:04:06;20.30;;;17.83;;
2157;SDS011;41972;48.774;9.282;2022-12-13T04:06:31;27.07;;;24.67;;
2157;SDS011;41972;48.774;9.282;2022-12-13T04:08:57;24.13;;;21.77;;
2157;SDS011;41972;48.774;9.282;2022-12-13T04:11:22;27.70;;;25.40;;
2157;SDS011;41972;48.774;9.282;2022-12-13T04:14:07;28.80;;;26.25;;
2157;SDS011;41972;48.774;9.282;2022-12-13T04:16:32;22.43;;;20.33;;
2157;SDS011;41972;48.774;9.282;2022-12-13T04:18:58;35.17;;;32.33;;
2157;SDS011;41972;48.774;9.282;2022-12-13T04:21:24;24.10;;;21.70;;
2157;SDS011;41972;48.774;9.282;2022-12-13T04:23:49;22.47;;;20.37;;
2157;SDS011;41972;48.774;9.282;2022-12-13T04:26:15;29.97;;;27.53;;
2157;SDS011;41972;48.774;9.282;2022-12-13T04:28:41;30.05;;;27.45;;
2157;SDS011;41972;48.774;9.282;2022-12-13T04:31:07;22.83;;;20.80;;
2157;SDS011;41972;48.774;9.282;2022-12-13T04:33:32;18.80;;;16.93;;
2157;SDS011;41972;48.774;9.282;2022-12-13T04:35:58;26.77;;;24.50;;
2157;SDS011;41972;48.774;9.282;2022-12-13T04:38:24;25.83;;;23.83;;
2157;SDS011;41972;48.774;9.282;2022-12-13T04:40:49;26.07;;;23.93;;
2157;SDS011;41972;48.774;9.282;2022-12-13T04:43:15;23.07;;;21.07;;
2157;SDS011;41972;48.774;9.282;2022-12-13T04:45:40;24.77;;;22.67;;
2157;SDS011;41972;48.774;9.282;2022-12-13T04:48:06;24.47;;;22.40;;
2157;SDS011;41972;48.774;9.282;2022-12-13T04:50:32;20.50;;;18.63;;
2157;SDS011;41972;48.774;9.282;2022-12-13T04:52:58;26.98;;;24.50;;
2157;SDS011;41972;48.774;9.282;2022-12-13T04:55:23;24.80;;;22.83;;
2157;SDS011;41972;48.774;9.282;2022-12-13T04:57:49;22.20;;;20.23;;
2157;SDS011;41972;48.774;9.282;2022-12-13T05:00:15;24.27;;;22.03;;
2157;SDS011;41972;48.774;9.282;2022-12-13T05:02:41;23.20;;;21.17;;
2157;SDS011;41972;48.774;9.282;2022-12-13T05:05:07;25.37;;;23.30;;
2157;SDS011;41972;48.774;9.282;2022-12-13T05:07:33;23.50;;;21.50;;
2157;SDS011;41972;48.774;9.282;2022-12-13T05:09:59;29.60;;;27.30;;
2157;SDS011;41972;48.774;9.282;2022-12-13T05:12:24;29.93;;;27.57;;
2157;SDS011;41972;48.774;9.282;2022-12-13T05:14:50;22.70;;;20.50;;
2157;SDS011;41972;48.774;9.282;2022-12-13T05:17:16;24.05;;;21.98;;
2157;SDS011;41972;48.774;9.282;2022-12-13T05:19:42;21.47;;;19.27;;
2157;SDS011;41972;48.774;9.282;2022-12-13T05:22:08;21.97;;;20.10;;
2157;SDS011;41972;48.774;9.282;2022-12-13T05:24:39;26.25;;;24.25;;
2157;SDS011;41972;48.774;9.282;2022-12-13T05:27:06;29.08;;;27.00;;
2157;SDS011;41972;48.774;9.282;2022-12-13T05:29:35;28.90;;;26.63;;
2157;SDS011;41972;48.774;9.282;2022-12-13T05:32:01;30.95;;;28.85;;
2157;SDS011;41972;48.774;9.282;2022-12-13T05:34:27;28.17;;;26.03;;
2157;SDS011;41972;48.774;9.282;2022-12-13T05:36:53;36.73;;;34.33;;
2157;SDS011;41972;48.774;9.282;2022-12-13T05:39:18;27.00;;;24.80;;
2157;SDS011;41972;48.774;9.282;2022-12-13T05:41:44;24.00;;;21.73;;
2157;SDS011;41972;48.774;9.282;2022-12-13T05:44:09;25.97;;;23.67;;
2157;SDS011;41972;48.774;9.282;2022-12-13T05:46:37;23.38;;;21.38;;
2157;SDS011;41972;48.774;9.282;2022-12-13T05:49:02;18.50;;;16.77;;
2157;SDS011;41972;48.774;9.282;2022-12-13T05:51:28;21.53;;;19.83;;
2157;SDS011;41972;48.774;9.282;2022-12-13T05:53:54;18.83;;;17.07;;
2157;SDS011;41972;48.774;9.282;2022-12-13T05:56:19;17.83;;;15.93;;
2157;SDS011;41972;48.774;9.282;2022-12-13T05:58:45;16.67;;;15.17;;
2157;SDS011;41972;48.774;9.282;2022-12-13T06:01:12;17.40;;;15.60;;
2157;SDS011;41972;48.774;9.282;2022-12-13T06:03:40;19.60;;;15.18;;
2157;SDS011;41972;48.774;9.282;2022-12-13T06:06:06;16.95;;;13.38;;
2157;SDS011;41972;48.774;9.282;2022-12-13T06:08:33;16.63;;;14.85;;
2157;SDS011;41972;48.774;9.282;2022-12-13T06:10:59;16.93;;;13.97;;
2157;SDS011;41972;48.774;9.282;2022-12-13T06:13:26;18.67;;;14.52;;
2157;SDS011;41972;48.774;9.282;2022-12-13T06:15:52;17.35;;;13.90;;
2157;SDS011;41972;48.774;9.282;2022-12-13T06:18:18;16.58;;;14.77;;
2157;SDS011;41972;48.774;9.282;2022-12-13T06:20:44;19.60;;;17.63;;
2157;SDS011;41972;48.774;9.282;2022-12-13T06:23:11;18.30;;;13.20;;
2157;SDS011;41972;48.774;9.282;2022-12-13T06:25:36;16.53;;;14.43;;
2157;SDS011;41972;48.774;9.282;2022-12-13T06:28:02;18.37;;;15.50;;
2157;SDS011;41972;48.774;9.282;2022-12-13T06:30:28;16.13;;;14.63;;
2157;SDS011;41972;48.774;9.282;2022-12-13T06:32:54;16.65;;;15.15;;
2157;SDS011;41972;48.774;9.282;2022-12-13T06:35:20;17.13;;;15.32;;
2157;SDS011;41972;48.774;9.282;2022-12-13T06:37:50;14.50;;;12.77;;
2157;SDS011;41972;48.774;9.282;2022-12-13T06:40:16;14.85;;;12.77;;
2157;SDS011;41972;48.774;9.282;2022-12-13T06:42:41;16.77;;;12.97;;
2157;SDS011;41972;48.774;9.282;2022-12-13T06:45:07;16.33;;;14.17;;
2157;SDS011;41972;48.774;9.282;2022-12-13T06:47:33;17.20;;;14.45;;
2157;SDS011;41972;48.774;9.282;2022-12-13T06:49:59;15.70;;;12.50;;
2157;SDS011;41972;48.774;9.282;2022-12-13T06:52:24;17.23;;;14.10;;
2157;SDS011;41972;48.774;9.282;2022-12-13T06:54:50;14.57;;;13.07;;
2157;SDS011;41972;48.774;9.282;2022-12-13T06:57:15;17.73;;;15.00;;
2157;SDS011;41972;48.774;9.282;2022-12-13T06:59:42;20.00;;;18.10;;
2157;SDS011;41972;48.774;9.282;2022-12-13T07:02:07;18.03;;;16.20;;
2157;SDS011;41972;48.774;9.282;2022-12-13T07:04:33;18.97;;;15.80;;
2157;SDS011;41972;48.774;9.282;2022-12-13T07:06:58;22.77;;;20.70;;
2157;SDS011;41972;48.774;9.282;2022-12-13T07:09:24;26.63;;;24.50;;
2157;SDS011;41972;48.774;9.282;2022-12-13T07:11:49;21.17;;;19.43;;
2157;SDS011;41972;48.774;9.282;2022-12-13T07:14:15;17.70;;;15.83;;
2157;SDS011;41972;48.774;9.282;2022-12-13T07:16:41;18.35;;;16.55;;
2157;SDS011;41972;48.774;9.282;2022-12-13T07:19:08;18.17;;;16.37;;
2157;SDS011;41972;48.774;9.282;2022-12-13T07:21:35;19.90;;;17.27;;
2157;SDS011;41972;48.774;9.282;2022-12-13T07:24:02;17.75;;;15.90;;
2157;SDS011;41972;48.774;9.282;2022-12-13T07:26:28;20.87;;;18.67;;
2157;SDS011;41972;48.774;9.282;2022-12-13T07:28:54;23.53;;;21.43;;
2157;SDS011;41972;48.774;9.282;2022-12-13T07:31:19;22.87;;;20.67;;
2157;SDS011;41972;48.774;9.282;2022-12-13T07:33:45;17.10;;;15.30;;
2157;SDS011;41972;48.774;9.282;2022-12-13T07:36:12;20.70;;;18.57;;
2157;SDS011;41972;48.774;9.282;2022-12-13T07:38:39;18.00;;;15.18;;
2157;SDS011;41972;48.774;9.282;2022-12-13T07:41:05;18.10;;;15.67;;
2157;SDS011;41972;48.774;9.282;2022-12-13T07:43:31;15.53;;;13.90;;
2157;SDS011;41972;48.774;9.282;2022-12-13T07:45:58;20.50;;;17.45;;
2157;SDS011;41972;48.774;9.282;2022-12-13T07:48:25;18.20;;;16.40;;
2157;SDS011;41972;48.774;9.282;2022-12-13T07:50:51;17.13;;;15.30;;
2157;SDS011;41972;48.774;9.282;2022-12-13T07:53:17;19.55;;;15.05;;
2157;SDS011;41972;48.774;9.282;2022-12-13T07:55:43;21.53;;;16.37;;
2157;SDS011;41972;48.774;9.282;2022-12-13T07:58:09;17.60;;;15.30;;
2157;SDS011;41972;48.774;9.282;2022-12-13T08:00:37;18.27;;;15.60;;
2157;SDS011;41972;48.774;9.282;2022-12-13T08:03:03;19.23;;;16.63;;
2157;SDS011;41972;48.774;9.282;2022-12-13T08:05:30;18.83;;;16.55;;
2157;SDS011;41972;48.774;9.282;2022-12-13T08:07:56;27.38;;;24.58;;
2157;SDS011;41972;48.774;9.282;2022-12-13T08:10:21;18.23;;;16.33;;
2157;SDS011;41972;48.774;9.282;2022-12-13T08:12:47;20.30;;;17.10;;
2157;SDS011;41972;48.774;9.282;2022-12-13T08:15:14;17.95;;;16.13;;
2157;SDS011;41972;48.774;9.282;2022-12-13T08:17:40;19.50;;;17.70;;
2157;SDS011;41972;48.774;9.282;2022-12-13T08:20:06;17.30;;;15.63;;
2157;SDS011;41972;48.774;9.282;2022-12-13T08:22:32;19.37;;;17.57;;
2157;SDS011;41972;48.774;9.282;2022-12-13T08:24:57;16.23;;;14.63;;
2157;SDS011;41972;48.774;9.282;2022-12-13T08:27:23;19.67;;;15.73;;
2157;SDS011;41972;48.774;9.282;2022-12-13T08:29:48;17.20;;;13.70;;
2157;SDS011;41972;48.774;9.282;2022-12-13T08:32:14;17.60;;;15.13;;
2157;SDS011;41972;48.774;9.282;2022-12-13T08:34:39;16.50;;;14.90;;
2157;SDS011;41972;48.774;9.282;2022-12-13T08:37:05;19.75;;;18.00;;
2157;SDS011;41972;48.774;9.282;2022-12-13T08:39:31;18.87;;;16.97;;
2157;SDS011;41972;48.774;9.282;2022-12-13T08:41:58;18.73;;;13.32;;
2157;SDS011;41972;48.774;9.282;2022-12-13T08:44:24;18.53;;;15.73;;
2157;SDS011;41972;48.774;9.282;2022-12-13T08:46:49;17.50;;;12.43;;
2157;SDS011;41972;48.774;9.282;2022-12-13T08:49:15;18.00;;;16.30;;
2157;SDS011;41972;48.774;9.282;2022-12-13T08:51:41;17.60;;;15.80;;
2157;SDS011;41972;48.774;9.282;2022-12-13T08:54:06;16.73;;;14.93;;
2157;SDS011;41972;48.774;9.282;2022-12-13T08:56:32;18.17;;;16.43;;
2157;SDS011;41972;48.774;9.282;2022-12-13T08:58:57;17.33;;;15.60;;
2157;SDS011;41972;48.774;9.282;2022-12-13T09:01:23;15.90;;;14.50;;
2157;SDS011;41972;48.774;9.282;2022-12-13T09:03:48;16.07;;;14.47;;
2157;SDS011;41972;48.774;9.282;2022-12-13T09:06:14;16.17;;;14.63;;
2157;SDS011;41972;48.774;9.282;2022-12-13T09:08:41;15.98;;;14.48;;
2157;SDS011;41972;48.774;9.282;2022-12-13T09:11:07;17.45;;;15.68;;
2157;SDS011;41972;48.774;9.282;2022-12-13T09:13:35;14.32;;;12.93;;
2157;SDS011;41972;48.774;9.282;2022-12-13T09:16:05;16.55;;;14.95;;
2157;SDS011;41972;48.774;9.282;2022-12-13T09:18:39;15.55;;;14.05;;
2157;SDS011;41972;48.774;9.282;2022-12-13T09:21:06;14.98;;;13.63;;
2157;SDS011;41972;48.774;9.282;2022-12-13T09:23:33;15.70;;;14.30;;
2157;SDS011;41972;48.774;9.282;2022-12-13T09:25:59;14.57;;;13.23;;
2157;SDS011;41972;48.774;9.282;2022-12-13T09:28:25;15.93;;;14.53;;
2157;SDS011;41972;48.774;9.282;2022-12-13T09:30:52;15.20;;;13.77;;
2157;SDS011;41972;48.774;9.282;2022-12-13T09:33:17;15.50;;;14.00;;
2157;SDS011;41972;48.774;9.282;2022-12-13T09:35:43;19.13;;;17.47;;
2157;SDS011;41972;48.774;9.282;2022-12-13T09:38:08;15.37;;;13.80;;
2157;SDS011;41972;48.774;9.282;2022-12-13T09:40:34;15.07;;;13.63;;
2157;SDS011;41972;48.774;9.282;2022-12-13T09:43:02;16.20;;;14.60;;
2157;SDS011;41972;48.774;9.282;2022-12-13T09:45:29;13.50;;;12.20;;
2157;SDS011;41972;48.774;9.282;2022-12-13T09:47:55;14.87;;;13.47;;
2157;SDS011;41972;48.774;9.282;2022-12-13T09:50:26;16.00;;;14.50;;
2157;SDS011;41972;48.774;9.282;2022-12-13T09:52:54;16.80;;;14.57;;
2157;SDS011;41972;48.774;9.282;2022-12-13T09:57:53;23.17;;;21.37;;
2157;SDS011;41972;48.774;9.282;2022-12-13T10:00:20;24.47;;;22.67;;
2157;SDS011;41972;48.774;9.282;2022-12-13T10:02:51;19.17;;;17.57;;
2157;SDS011;41972;48.774;9.282;2022-12-13T10:05:32;19.40;;;17.80;;
2157;SDS011;41972;48.774;9.282;2022-12-13T10:08:05;25.53;;;23.30;;
2157;SDS011;41972;48.774;9.282;2022-12-13T10:10:31;20.50;;;18.77;;
2157;SDS011;41972;48.774;9.282;2022-12-13T10:12:59;22.90;;;20.90;;
2157;SDS011;41972;48.774;9.282;2022-12-13T10:15:35;26.13;;;24.23;;
2157;SDS011;41972;48.774;9.282;2022-12-13T10:18:05;21.70;;;20.00;;
2157;SDS011;41972;48.774;9.282;2022-12-13T10:20:33;23.20;;;21.10;;
2157;SDS011;41972;48.774;9.282;2022-12-13T10:22:59;20.53;;;18.77;;
2157;SDS011;41972;48.774;9.282;2022-12-13T10:25:40;20.17;;;18.37;;
2157;SDS011;41972;48.774;9.282;2022-12-13T10:28:08;23.90;;;21.73;;
2157;SDS011;41972;48.774;9.282;2022-12-13T10:30:40;22.87;;;20.87;;
2157;SDS011;41972;48.774;9.282;2022-12-13T10:33:22;22.57;;;20.77;;
2157;SDS011;41972;48.774;9.282;2022-12-13T10:36:01;22.40;;;20.27;;
2157;SDS011;41972;48.774;9.282;2022-12-13T10:38:37;28.57;;;26.30;;
2157;SDS011;41972;48.774;9.282;2022-12-13T10:46:58;19.33;;;17.42;;
2157;SDS011;41972;48.774;9.282;2022-12-13T10:49:36;18.63;;;16.92;;
2157;SDS011;41972;48.774;9.282;2022-12-13T10:52:04;23.97;;;22.00;;
2157;SDS011;41972;48.774;9.282;2022-12-13T10:54:33;17.50;;;15.90;;
2157;SDS011;41972;48.774;9.282;2022-12-13T10:57:01;17.38;;;15.57;;
2157;SDS011;41972;48.774;9.282;2022-12-13T10:59:31;20.40;;;18.70;;
2157;SDS011;41972;48.774;9.282;2022-12-13T11:01:59;17.77;;;16.08;;
2157;SDS011;41972;48.774;9.282;2022-12-13T11:04:47;18.10;;;16.30;;
2157;SDS011;41972;48.774;9.282;2022-12-13T11:07:23;18.00;;;16.33;;
2157;SDS011;41972;48.774;9.282;2022-12-13T11:09:53;18.05;;;16.33;;
2157;SDS011;41972;48.774;9.282;2022-12-13T11:12:20;18.88;;;16.85;;
2157;SDS011;41972;48.774;9.282;2022-12-13T11:15:00;19.23;;;17.33;;
2157;SDS011;41972;48.774;9.282;2022-12-13T11:17:30;19.45;;;17.60;;
2157;SDS011;41972;48.774;9.282;2022-12-13T11:19:59;18.15;;;16.55;;
2157;SDS011;41972;48.774;9.282;2022-12-13T11:22:31;21.45;;;19.27;;
2157;SDS011;41972;48.774;9.282;2022-12-13T11:25:01;18.88;;;17.27;;
2157;SDS011;41972;48.774;9.282;2022-12-13T11:30:23;21.08;;;19.08;;
2157;SDS011;41972;48.774;9.282;2022-12-13T11:33:11;21.05;;;18.55;;
2157;SDS011;41972;48.774;9.282;2022-12-13T11:35:47;20.73;;;18.73;;
2157;SDS011;41972;48.774;9.282;2022-12-13T11:41:18;19.05;;;17.15;;
2157;SDS011;41972;48.774;9.282;2022-12-13T11:43:57;20.52;;;18.63;;
2157;SDS011;41972;48.774;9.282;2022-12-13T11:46:54;26.80;;;24.80;;
2157;SDS011;41972;48.774;9.282;2022-12-13T11:49:36;19.20;;;17.40;;
2157;SDS011;41972;48.774;9.282;2022-12-13T11:52:12;28.27;;;26.17;;
2157;SDS011;41972;48.774;9.282;2022-12-13T11:54:59;17.63;;;16.03;;
2157;SDS011;41972;48.774;9.282;2022-12-13T12:02:39;17.95;;;16.30;;
2157;SDS011;41972;48.774;9.282;2022-12-13T12:05:16;19.50;;;17.60;;
2157;SDS011;41972;48.774;9.282;2022-12-13T12:07:56;18.33;;;16.50;;
2157;SDS011;41972;48.774;9.282;2022-12-13T12:10:35;17.67;;;15.88;;
2157;SDS011;41972;48.774;9.282;2022-12-13T12:13:22;21.40;;;19.23;;
2157;SDS011;41972;48.774;9.282;2022-12-13T12:16:02;20.92;;;18.92;;
2157;SDS011;41972;48.774;9.282;2022-12-13T12:18:34;19.73;;;17.65;;
2157;SDS011;41972;48.774;9.282;2022-12-13T12:26:42;21.35;;;19.05;;
2157;SDS011;41972;48.774;9.282;2022-12-13T12:32:07;20.00;;;17.90;;
2157;SDS011;41972;48.774;9.282;2022-12-13T12:34:54;20.50;;;18.33;;
2157;SDS011;41972;48.774;9.282;2022-12-13T12:37:42;22.87;;;21.07;;
2157;SDS011;41972;48.774;9.282;2022-12-13T12:43:06;45.40;;;42.90;;
2157;SDS011;41972;48.774;9.282;2022-12-13T12:51:24;16.40;;;14.80;;
2157;SDS011;41972;48.774;9.282;2022-12-13T13:02:56;17.87;;;16.23;;
2157;SDS011;41972;48.774;9.282;2022-12-13T13:08:05;18.63;;;16.83;;
2157;SDS011;41972;48.774;9.282;2022-12-13T13:10:37;18.17;;;16.30;;
2157;SDS011;41972;48.774;9.282;2022-12-13T13:13:04;19.05;;;17.00;;
2157;SDS011;41972;48.774;9.282;2022-12-13T13:17:56;19.27;;;17.50;;
2157;SDS011;41972;48.774;9.282;2022-12-13T13:20:23;17.38;;;15.77;;
2157;SDS011;41972;48.774;9.282;2022-12-13T13:22:51;21.35;;;15.93;;
2157;SDS011;41972;48.774;9.282;2022-12-13T13:28:02;17.70;;;15.90;;
2157;SDS011;41972;48.774;9.282;2022-12-13T13:30:30;17.03;;;15.53;;
2157;SDS011;41972;48.774;9.282;2022-12-13T13:32:57;18.40;;;16.60;;
2157;SDS011;41972;48.774;9.282;2022-12-13T13:37:58;16.00;;;14.50;;
2157;SDS011;41972;48.774;9.282;2022-12-13T13:45:36;17.07;;;15.40;;
2157;SDS011;41972;48.774;9.282;2022-12-13T13:51:19;17.00;;;15.40;;
2157;SDS011;41972;48.774;9.282;2022-12-13T13:56:58;17.27;;;15.53;;
2157;SDS011;41972;48.774;9.282;2022-12-13T14:26:01;16.85;;;14.60;;
2157;SDS011;41972;48.774;9.282;2022-12-13T14:28:32;16.27;;;14.88;;
2157;SDS011;41972;48.774;9.282;2022-12-13T14:31:21;16.90;;;15.40;;
2157;SDS011;41972;48.774;9.282;2022-12-13T14:33:50;14.87;;;13.33;;
2157;SDS011;41972;48.774;9.282;2022-12-13T14:36:21;17.63;;;13.37;;
2157;SDS011;41972;48.774;9.282;2022-12-13T14:39:03;14.67;;;13.23;;
2157;SDS011;41972;48.774;9.282;2022-12-13T14:41:30;15.18;;;13.68;;
2157;SDS011;41972;48.774;9.282;2022-12-13T14:44:15;14.87;;;13.30;;
2157;SDS011;41972;48.774;9.282;2022-12-13T14:46:48;16.73;;;15.20;;
2157;SDS011;41972;48.774;9.282;2022-12-13T14:49:15;14.85;;;13.32;;
2157;SDS011;41972;48.774;9.282;2022-12-13T14:51:41;14.75;;;13.35;;
2157;SDS011;41972;48.774;9.282;2022-12-13T14:54:07;15.63;;;14.13;;
2157;SDS011;41972;48.774;9.282;2022-12-13T14:56:56;15.77;;;14.40;;
2157;SDS011;41972;48.774;9.282;2022-12-13T14:59:24;15.80;;;14.43;;
2157;SDS011;41972;48.774;9.282;2022-12-13T15:01:54;14.63;;;13.23;;
2157;SDS011;41972;48.774;9.282;2022-12-13T15:04:30;15.30;;;13.83;;
2157;SDS011;41972;48.774;9.282;2022-12-13T15:07:05;14.37;;;12.50;;
2157;SDS011;41972;48.774;9.282;2022-12-13T15:09:41;15.90;;;14.40;;
2157;SDS011;41972;48.774;9.282;2022-12-13T15:12:09;15.37;;;13.87;;
2157;SDS011;41972;48.774;9.282;2022-12-13T15:14:47;15.93;;;14.43;;
2157;SDS011;41972;48.774;9.282;2022-12-13T15:19:57;14.17;;;12.93;;
2157;SDS011;41972;48.774;9.282;2022-12-13T15:22:22;15.73;;;14.33;;
2157;SDS011;41972;48.774;9.282;2022-12-13T15:24:48;13.50;;;12.13;;
2157;SDS011;41972;48.774;9.282;2022-12-13T15:27:15;16.05;;;14.55;;
2157;SDS011;41972;48.774;9.282;2022-12-13T15:29:46;13.43;;;12.07;;
2157;SDS011;41972;48.774;9.282;2022-12-13T15:32:14;13.77;;;12.57;;
2157;SDS011;41972;48.774;9.282;2022-12-13T15:34:43;13.50;;;12.17;;
2157;SDS011;41972;48.774;9.282;2022-12-13T15:39:37;15.37;;;13.87;;
2157;SDS011;41972;48.774;9.282;2022-12-13T15:42:05;15.13;;;13.63;;
2157;SDS011;41972;48.774;9.282;2022-12-13T15:44:49;15.57;;;13.93;;
2157;SDS011;41972;48.774;9.282;2022-12-13T15:47:18;14.20;;;13.00;;
2157;SDS011;41972;48.774;9.282;2022-12-13T15:55:21;15.67;;;14.17;;
2157;SDS011;41972;48.774;9.282;2022-12-13T15:57:51;14.93;;;13.60;;
2157;SDS011;41972;48.774;9.282;2022-12-13T16:00:33;15.68;;;14.07;;
2157;SDS011;41972;48.774;9.282;2022-12-13T16:03:00;15.93;;;14.15;;
2157;SDS011;41972;48.774;9.282;2022-12-13T16:05:35;15.10;;;13.80;;
2157;SDS011;41972;48.774;9.282;2022-12-13T16:08:06;14.10;;;12.80;;
2157;SDS011;41972;48.774;9.282;2022-12-13T16:10:49;14.20;;;12.90;;
2157;SDS011;41972;48.774;9.282;2022-12-13T16:13:21;16.85;;;14.88;;
2157;SDS011;41972;48.774;9.282;2022-12-13T16:15:55;13.75;;;12.55;;
2157;SDS011;41972;48.774;9.282;2022-12-13T16:18:31;15.52;;;14.05;;
2157;SDS011;41972;48.774;9.282;2022-12-13T16:21:05;15.63;;;13.97;;
2157;SDS011;41972;48.774;9.282;2022-12-13T16:23:32;16.73;;;14.25;;
2157;SDS011;41972;48.774;9.282;2022-12-13T16:25:57;15.57;;;14.03;;
2157;SDS011;41972;48.774;9.282;2022-12-13T16:28:23;15.57;;;14.07;;
2157;SDS011;41972;48.774;9.282;2022-12-13T16:33:17;16.30;;;14.63;;
2157;SDS011;41972;48.774;9.282;2022-12-13T16:35:47;14.32;;;13.05;;
2157;SDS011;41972;48.774;9.282;2022-12-13T16:38:14;16.20;;;14.60;;
2157;SDS011;41972;48.774;9.282;2022-12-13T16:40:40;15.82;;;14.23;;
2157;SDS011;41972;48.774;9.282;2022-12-13T16:43:06;15.30;;;13.80;;
2157;SDS011;41972;48.774;9.282;2022-12-13T16:45:43;17.02;;;15.30;;
2157;SDS011;41972;48.774;9.282;2022-12-13T16:48:12;16.47;;;14.83;;
2157;SDS011;41972;48.774;9.282;2022-12-13T16:50:42;15.73;;;14.23;;
2157;SDS011;41972;48.774;9.282;2022-12-13T16:53:12;15.43;;;13.37;;
2157;SDS011;41972;48.774;9.282;2022-12-13T16:55:38;15.52;;;13.55;;